createdAt,value
2023-02-08T00:01:48.466Z,-6.48
2023-02-08T00:04:14.880Z,-6.46
2023-02-08T00:06:41.682Z,-6.47
2023-02-08T00:09:09.014Z,-6.50
2023-02-08T00:11:35.434Z,-6.58
2023-02-08T00:14:01.912Z,-6.55
2023-02-08T00:16:29.204Z,-6.48
2023-02-08T00:18:56.314Z,-6.50
2023-02-08T00:21:22.840Z,-6.50
2023-02-08T00:23:49.980Z,-6.45
2023-02-08T00:26:17.680Z,-6.46
2023-02-08T00:28:50.379Z,-6.50
2023-02-08T00:31:17.398Z,-6.46
2023-02-08T00:33:44.212Z,-6.46
2023-02-08T00:36:11.788Z,-6.48
2023-02-08T00:38:38.484Z,-6.51
2023-02-08T00:41:05.828Z,-6.55
2023-02-08T00:43:33.923Z,-6.63
2023-02-08T00:46:00.792Z,-6.50
2023-02-08T00:48:28.439Z,-6.56
2023-02-08T00:51:09.726Z,-6.55
2023-02-08T00:53:37.928Z,-6.52
2023-02-08T00:56:05.544Z,-6.57
2023-02-08T00:58:32.215Z,-6.59
2023-02-08T01:00:59.363Z,-6.59
2023-02-08T01:03:25.998Z,-6.54
2023-02-08T01:05:54.265Z,-6.49
2023-02-08T01:08:21.543Z,-6.48
2023-02-08T01:10:49.549Z,-6.49
2023-02-08T01:13:16.476Z,-6.55
2023-02-08T01:15:43.607Z,-6.61
2023-02-08T01:18:10.884Z,-6.63
2023-02-08T01:20:37.734Z,-6.71
2023-02-08T01:23:04.784Z,-6.66
2023-02-08T01:25:32.443Z,-6.64
2023-02-08T01:27:59.283Z,-6.61
2023-02-08T01:30:26.920Z,-6.62
2023-02-08T01:32:53.473Z,-6.70
2023-02-08T01:35:19.904Z,-6.62
2023-02-08T01:37:46.595Z,-6.64
2023-02-08T01:40:14.029Z,-6.73
2023-02-08T01:42:40.412Z,-6.74
2023-02-08T01:45:25.568Z,-6.79
2023-02-08T01:48:03.405Z,-6.84
2023-02-08T01:50:39.685Z,-6.92
2023-02-08T01:53:08.376Z,-6.94
2023-02-08T01:55:39.719Z,-6.98
2023-02-08T01:58:09.110Z,-6.96
2023-02-08T02:00:35.522Z,-7.02
2023-02-08T02:03:04.781Z,-6.99
2023-02-08T02:05:39.958Z,-7.03
2023-02-08T02:08:07.905Z,-7.06
2023-02-08T02:10:36.495Z,-7.10
2023-02-08T02:13:07.298Z,-7.05
2023-02-08T02:15:34.167Z,-7.08
2023-02-08T02:18:02.385Z,-6.99
2023-02-08T02:20:39.607Z,-7.02
2023-02-08T02:23:28.072Z,-7.08
2023-02-08T02:26:16.894Z,-7.14
2023-02-08T02:29:13.067Z,-7.12
2023-02-08T02:31:54.893Z,-7.12
2023-02-08T02:34:46.336Z,-7.07
2023-02-08T02:37:37.786Z,-7.08
2023-02-08T02:40:43.493Z,-7.12
2023-02-08T02:43:33.469Z,-7.14
2023-02-08T02:46:28.721Z,-7.16
2023-02-08T02:49:15.191Z,-7.11
2023-02-08T02:51:58.508Z,-7.22
2023-02-08T02:54:49.687Z,-7.17
2023-02-08T02:57:20.336Z,-7.19
2023-02-08T02:59:47.148Z,-7.21
2023-02-08T03:02:14.111Z,-7.24
2023-02-08T03:04:40.712Z,-7.19
2023-02-08T03:07:19.603Z,-7.22
2023-02-08T03:10:04.897Z,-7.32
2023-02-08T03:13:09.137Z,-7.31
2023-02-08T03:15:54.352Z,-7.38
2023-02-08T03:18:48.044Z,-7.45
2023-02-08T03:21:38.487Z,-7.50
2023-02-08T03:24:23.221Z,-7.54
2023-02-08T03:26:58.652Z,-7.57
2023-02-08T03:29:49.246Z,-7.61
2023-02-08T03:32:39.087Z,-7.57
2023-02-08T03:35:10.704Z,-7.57
2023-02-08T03:37:44.411Z,-7.68
2023-02-08T03:40:18.731Z,-7.70
2023-02-08T03:42:46.712Z,-7.72
2023-02-08T03:45:36.512Z,-7.75
2023-02-08T03:48:05.279Z,-7.71
2023-02-08T03:50:34.749Z,-7.77
2023-02-08T03:53:02.125Z,-7.75
2023-02-08T03:55:31.464Z,-7.77
2023-02-08T03:58:06.301Z,-7.82
2023-02-08T04:00:37.090Z,-7.84
2023-02-08T04:03:12.388Z,-7.82
2023-02-08T04:05:38.882Z,-7.89
2023-02-08T04:08:05.484Z,-7.84
2023-02-08T04:10:31.939Z,-7.83
2023-02-08T04:12:58.797Z,-7.76
2023-02-08T04:15:27.525Z,-7.74
2023-02-08T04:17:55.062Z,-7.84
2023-02-08T04:20:21.718Z,-7.95
2023-02-08T04:22:48.459Z,-7.99
2023-02-08T04:25:15.046Z,-8.01
2023-02-08T04:27:41.551Z,-8.02
2023-02-08T04:30:08.570Z,-7.96
2023-02-08T04:32:35.037Z,-8.04
2023-02-08T04:35:01.480Z,-7.97
2023-02-08T04:37:28.169Z,-7.97
2023-02-08T04:39:54.573Z,-7.96
2023-02-08T04:42:21.237Z,-7.94
2023-02-08T04:44:48.033Z,-7.98
2023-02-08T04:47:14.366Z,-8.03
2023-02-08T04:49:41.051Z,-8.04
2023-02-08T04:52:07.506Z,-8.05
2023-02-08T04:54:34.170Z,-8.03
2023-02-08T04:57:05.851Z,-8.01
2023-02-08T04:59:32.453Z,-8.05
2023-02-08T05:01:59.038Z,-8.10
2023-02-08T05:04:25.465Z,-8.11
2023-02-08T05:06:51.913Z,-8.14
2023-02-08T05:09:19.400Z,-8.23
2023-02-08T05:11:45.838Z,-8.29
2023-02-08T05:14:12.279Z,-8.28
2023-02-08T05:16:38.700Z,-8.30
2023-02-08T05:19:05.173Z,-8.33
2023-02-08T05:21:31.668Z,-8.32
2023-02-08T05:23:58.117Z,-8.37
2023-02-08T05:26:25.720Z,-8.33
2023-02-08T05:28:52.226Z,-8.40
2023-02-08T05:31:24.169Z,-8.47
2023-02-08T05:33:51.850Z,-8.40
2023-02-08T05:36:19.479Z,-8.44
2023-02-08T05:38:45.923Z,-8.44
2023-02-08T05:41:12.409Z,-8.45
2023-02-08T05:43:39.052Z,-8.43
2023-02-08T05:46:05.622Z,-8.43
2023-02-08T05:48:32.283Z,-8.43
2023-02-08T05:50:59.480Z,-8.43
2023-02-08T05:53:26.176Z,-8.43
2023-02-08T05:55:52.943Z,-8.31
2023-02-08T05:58:19.532Z,-8.38
2023-02-08T06:00:46.221Z,-8.39
2023-02-08T06:03:12.812Z,-8.36
2023-02-08T06:05:40.569Z,-8.23
2023-02-08T06:08:07.358Z,-8.24
2023-02-08T06:10:33.941Z,-8.24
2023-02-08T06:13:01.534Z,-8.29
2023-02-08T06:15:28.300Z,-8.26
2023-02-08T06:17:59.147Z,-8.16
2023-02-08T06:20:25.638Z,-8.13
2023-02-08T06:22:52.117Z,-8.18
2023-02-08T06:25:18.593Z,-8.12
2023-02-08T06:27:45.400Z,-8.04
2023-02-08T06:30:12.192Z,-7.95
2023-02-08T06:32:38.950Z,-7.80
2023-02-08T06:35:05.664Z,-7.85
2023-02-08T06:37:32.095Z,-7.87
2023-02-08T06:39:59.052Z,-7.78
2023-02-08T06:42:28.969Z,-7.84
2023-02-08T06:44:56.026Z,-7.56
2023-02-08T06:47:23.262Z,-7.56
2023-02-08T06:50:04.264Z,-7.47
2023-02-08T06:52:30.965Z,-7.41
2023-02-08T06:54:57.407Z,-6.90
2023-02-08T06:57:24.325Z,-6.52
2023-02-08T06:59:59.726Z,-6.00
2023-02-08T07:02:26.470Z,-5.40
2023-02-08T07:04:53.664Z,-4.91
2023-02-08T07:07:20.186Z,-4.52
2023-02-08T07:09:46.941Z,-4.03
2023-02-08T07:12:13.459Z,-3.54
2023-02-08T07:14:41.524Z,-2.88
2023-02-08T07:17:08.037Z,-2.39
2023-02-08T07:19:34.446Z,-2.14
2023-02-08T07:22:07.247Z,-2.14
2023-02-08T07:24:38.840Z,-2.17
2023-02-08T07:27:06.958Z,-2.03
2023-02-08T07:29:33.896Z,-1.54
2023-02-08T07:32:01.491Z,-0.92
2023-02-08T07:34:33.063Z,-0.27
2023-02-08T07:36:59.510Z,-0.16
2023-02-08T07:39:26.364Z,0.33
2023-02-08T07:41:53.218Z,1.10
2023-02-08T07:44:19.685Z,1.47
2023-02-08T07:46:46.198Z,2.14
2023-02-08T07:49:12.654Z,2.60
2023-02-08T07:51:39.065Z,3.58
2023-02-08T07:54:05.491Z,4.15
2023-02-08T07:56:32.083Z,5.02
2023-02-08T07:58:58.527Z,5.55
2023-02-08T08:01:25.030Z,5.05
2023-02-08T08:03:52.019Z,4.64
2023-02-08T08:06:19.889Z,3.34
2023-02-08T08:08:47.751Z,4.36
2023-02-08T08:11:15.453Z,4.62
2023-02-08T08:13:42.169Z,5.20
2023-02-08T08:16:08.841Z,5.33
2023-02-08T08:18:36.075Z,4.88
2023-02-08T08:21:03.165Z,4.40
2023-02-08T08:23:29.930Z,3.27
2023-02-08T08:25:56.432Z,3.47
2023-02-08T08:28:23.119Z,2.77
2023-02-08T08:30:49.764Z,1.92
2023-02-08T08:33:16.315Z,2.35
2023-02-08T08:35:43.895Z,2.30
2023-02-08T08:38:10.707Z,2.40
2023-02-08T08:40:37.369Z,1.93
2023-02-08T08:43:03.959Z,1.66
2023-02-08T08:45:30.371Z,1.16
2023-02-08T08:47:56.901Z,1.74
2023-02-08T08:50:23.453Z,1.72
2023-02-08T08:52:49.898Z,1.76
2023-02-08T08:55:16.617Z,2.67
2023-02-08T08:57:43.356Z,2.09
2023-02-08T09:00:10.835Z,1.79
2023-02-08T09:02:37.622Z,1.68
2023-02-08T09:05:05.496Z,1.58
2023-02-08T09:07:32.973Z,1.46
2023-02-08T09:09:59.416Z,1.50
2023-02-08T09:12:25.812Z,1.93
2023-02-08T09:14:52.347Z,2.35
2023-02-08T09:17:19.109Z,2.88
2023-02-08T09:19:47.227Z,2.59
2023-02-08T09:22:14.087Z,2.05
2023-02-08T09:24:40.848Z,2.23
2023-02-08T09:27:07.358Z,2.24
2023-02-08T09:29:34.396Z,2.15
2023-02-08T09:32:01.424Z,2.14
2023-02-08T09:34:28.016Z,3.23
2023-02-08T09:36:54.785Z,2.80
2023-02-08T09:39:23.785Z,2.39
2023-02-08T09:42:28.225Z,2.51
2023-02-08T09:45:07.137Z,2.96
2023-02-08T09:47:44.786Z,3.54
2023-02-08T09:50:19.830Z,2.88
2023-02-08T09:53:02.671Z,2.05
2023-02-08T09:55:39.775Z,2.53
2023-02-08T09:58:19.988Z,2.77
2023-02-08T10:00:48.837Z,2.69
2023-02-08T10:03:25.000Z,2.90
2023-02-08T10:05:51.442Z,3.67
2023-02-08T10:08:17.984Z,3.59
2023-02-08T10:10:55.557Z,3.26
2023-02-08T10:13:41.143Z,2.76
2023-02-08T10:16:17.581Z,3.22
2023-02-08T10:19:01.436Z,3.15
2023-02-08T10:21:38.549Z,2.96
2023-02-08T10:24:25.936Z,3.13
2023-02-08T10:27:11.237Z,3.56
2023-02-08T10:29:52.613Z,3.32
2023-02-08T10:32:35.606Z,2.48
2023-02-08T10:35:07.447Z,2.15
2023-02-08T10:37:35.513Z,2.20
2023-02-08T10:40:26.482Z,3.42
2023-02-08T10:43:19.623Z,2.92
2023-02-08T10:45:53.209Z,2.77
2023-02-08T10:48:50.019Z,3.16
2023-02-08T10:51:18.615Z,2.94
2023-02-08T10:53:45.612Z,3.68
2023-02-08T10:56:43.842Z,3.30
2023-02-08T10:59:16.694Z,2.89
2023-02-08T11:01:45.418Z,3.05
2023-02-08T11:04:12.885Z,3.52
2023-02-08T11:06:41.265Z,3.73
2023-02-08T11:09:23.441Z,3.97
2023-02-08T11:11:53.182Z,3.72
2023-02-08T11:14:47.155Z,3.46
2023-02-08T11:17:29.827Z,2.98
2023-02-08T11:19:56.999Z,4.00
2023-02-08T11:22:25.162Z,4.31
2023-02-08T11:24:57.718Z,5.36
2023-02-08T11:27:36.291Z,4.76
2023-02-08T11:30:24.161Z,4.64
2023-02-08T11:33:18.577Z,4.27
2023-02-08T11:35:53.968Z,3.91
2023-02-08T11:38:27.279Z,4.04
2023-02-08T11:40:56.750Z,3.78
2023-02-08T11:43:29.711Z,4.54
2023-02-08T11:45:57.910Z,5.25
2023-02-08T11:48:38.662Z,4.53
2023-02-08T11:51:05.858Z,4.47
2023-02-08T11:53:46.850Z,4.80
2023-02-08T11:56:25.434Z,5.33
2023-02-08T11:59:14.847Z,4.20
2023-02-08T12:01:42.292Z,3.95
2023-02-08T12:04:11.280Z,3.83
2023-02-08T12:06:56.623Z,3.64
2023-02-08T12:10:02.084Z,3.61
2023-02-08T12:13:07.101Z,4.06
2023-02-08T12:15:58.255Z,4.00
2023-02-08T12:18:38.433Z,3.62
2023-02-08T12:21:23.191Z,3.75
2023-02-08T12:24:03.388Z,3.82
2023-02-08T12:26:54.926Z,3.96
2023-02-08T12:29:47.802Z,3.46
2023-02-08T12:32:43.212Z,4.46
2023-02-08T12:36:01.560Z,4.14
2023-02-08T12:39:18.568Z,3.42
2023-02-08T12:42:14.771Z,3.00
2023-02-08T12:45:18.630Z,3.95
2023-02-08T12:48:10.059Z,3.19
2023-02-08T12:50:56.721Z,3.71
2023-02-08T12:53:40.335Z,4.38
2023-02-08T12:56:13.254Z,4.56
2023-02-08T12:58:48.158Z,4.56
2023-02-08T13:01:23.303Z,4.09
2023-02-08T13:04:12.187Z,3.56
2023-02-08T13:06:43.778Z,3.51
2023-02-08T13:09:36.371Z,3.63
2023-02-08T13:12:08.731Z,3.27
2023-02-08T13:14:39.133Z,3.86
2023-02-08T13:17:30.142Z,3.25
2023-02-08T13:20:05.702Z,3.17
2023-02-08T13:22:35.930Z,2.96
2023-02-08T13:25:07.980Z,2.88
2023-02-08T13:27:35.034Z,2.40
2023-02-08T13:30:01.836Z,2.54
2023-02-08T13:32:30.499Z,2.59
2023-02-08T13:35:01.343Z,2.64
2023-02-08T13:37:31.702Z,2.78
2023-02-08T13:40:01.360Z,2.90
2023-02-08T13:42:38.262Z,2.56
2023-02-08T13:45:06.438Z,2.68
2023-02-08T13:47:42.687Z,2.68
2023-02-08T13:50:29.232Z,2.27
2023-02-08T13:52:56.108Z,2.53
2023-02-08T13:55:29.001Z,2.81
2023-02-08T13:57:57.863Z,2.92
2023-02-08T14:00:35.539Z,2.92
2023-02-08T14:03:20.700Z,2.71
2023-02-08T14:05:53.989Z,2.71
2023-02-08T14:08:30.634Z,2.42
2023-02-08T14:11:17.376Z,2.73
2023-02-08T14:13:52.472Z,2.86
2023-02-08T14:16:26.461Z,2.35
2023-02-08T14:18:54.835Z,2.64
2023-02-08T14:21:38.230Z,2.87
2023-02-08T14:24:17.394Z,2.59
2023-02-08T14:26:44.899Z,2.73
2023-02-08T14:29:21.700Z,2.84
2023-02-08T14:31:48.364Z,2.87
2023-02-08T14:34:35.637Z,2.77
2023-02-08T14:37:26.659Z,2.43
2023-02-08T14:40:21.286Z,2.29
2023-02-08T14:43:19.710Z,2.10
2023-02-08T14:45:48.681Z,2.01
2023-02-08T14:48:24.282Z,1.97
2023-02-08T14:50:54.076Z,2.00
2023-02-08T14:53:33.824Z,1.97
2023-02-08T14:56:13.644Z,1.79
2023-02-08T14:58:42.429Z,1.89
2023-02-08T15:01:27.636Z,1.81
2023-02-08T15:04:01.822Z,1.87
2023-02-08T15:06:34.799Z,1.92
2023-02-08T15:09:01.428Z,1.82
2023-02-08T15:11:33.427Z,1.71
2023-02-08T15:14:02.242Z,1.60
2023-02-08T15:16:35.592Z,1.36
2023-02-08T15:19:04.341Z,1.33
2023-02-08T15:21:32.409Z,1.25
2023-02-08T15:24:14.500Z,1.27
2023-02-08T15:26:53.480Z,1.19
2023-02-08T15:29:32.703Z,1.17
2023-02-08T15:32:02.303Z,1.11
2023-02-08T15:34:28.670Z,1.02
2023-02-08T15:36:56.469Z,0.93
2023-02-08T15:39:34.727Z,0.88
2023-02-08T15:42:02.220Z,0.82
2023-02-08T15:44:30.580Z,0.70
2023-02-08T15:47:02.965Z,0.64
2023-02-08T15:49:39.468Z,0.65
2023-02-08T15:52:06.651Z,0.56
2023-02-08T15:54:33.246Z,0.58
2023-02-08T15:57:07.872Z,0.45
2023-02-08T15:59:37.690Z,0.38
2023-02-08T16:02:21.026Z,0.31
2023-02-08T16:04:47.478Z,0.27
2023-02-08T16:07:27.317Z,0.20
2023-02-08T16:09:54.599Z,0.18
2023-02-08T16:12:23.265Z,0.14
2023-02-08T16:14:52.745Z,0.12
2023-02-08T16:17:33.354Z,0.05
2023-02-08T16:19:59.732Z,-0.11
2023-02-08T16:22:31.055Z,-0.10
2023-02-08T16:25:23.460Z,-0.11
2023-02-08T16:27:49.917Z,-0.15
2023-02-08T16:30:21.168Z,-0.11
2023-02-08T16:32:48.613Z,-0.16
2023-02-08T16:35:22.121Z,-0.15
2023-02-08T16:37:54.563Z,-0.27
2023-02-08T16:40:57.998Z,-0.24
2023-02-08T16:43:29.732Z,-0.36
2023-02-08T16:46:11.494Z,-0.38
2023-02-08T16:48:52.981Z,-0.45
2023-02-08T16:51:28.182Z,-0.47
2023-02-08T16:53:56.785Z,-0.45
2023-02-08T16:56:27.474Z,-0.51
2023-02-08T16:58:53.931Z,-0.56
2023-02-08T17:01:23.043Z,-0.64
2023-02-08T17:03:50.298Z,-0.63
2023-02-08T17:06:25.408Z,-0.74
2023-02-08T17:08:52.113Z,-0.74
2023-02-08T17:11:18.646Z,-0.80
2023-02-08T17:13:45.305Z,-0.81
2023-02-08T17:16:18.190Z,-0.88
2023-02-08T17:18:49.287Z,-0.87
2023-02-08T17:21:16.421Z,-0.85
2023-02-08T17:23:43.955Z,-0.92
2023-02-08T17:26:20.383Z,-0.99
2023-02-08T17:28:46.771Z,-1.03
2023-02-08T17:31:14.346Z,-1.05
2023-02-08T17:33:41.380Z,-0.95
2023-02-08T17:36:10.366Z,-0.91
2023-02-08T17:38:40.323Z,-0.98
2023-02-08T17:41:10.149Z,-0.95
2023-02-08T17:43:37.477Z,-1.06
2023-02-08T17:46:11.329Z,-1.06
2023-02-08T17:48:37.726Z,-1.17
2023-02-08T17:51:16.142Z,-1.23
2023-02-08T17:53:43.859Z,-1.21
2023-02-08T17:56:13.263Z,-1.24
2023-02-08T17:58:40.865Z,-1.28
2023-02-08T18:01:17.654Z,-1.10
2023-02-08T18:03:45.234Z,-1.19
2023-02-08T18:06:12.001Z,-1.22
2023-02-08T18:08:39.181Z,-1.31
2023-02-08T18:11:12.616Z,-1.23
2023-02-08T18:13:41.813Z,-1.32
2023-02-08T18:16:14.599Z,-1.36
2023-02-08T18:18:41.061Z,-1.41
2023-02-08T18:21:13.230Z,-1.30
2023-02-08T18:23:40.163Z,-1.37
2023-02-08T18:26:08.618Z,-1.42
2023-02-08T18:28:35.180Z,-1.44
2023-02-08T18:31:03.812Z,-1.50
2023-02-08T18:33:30.665Z,-1.50
2023-02-08T18:35:57.064Z,-1.53
2023-02-08T18:38:23.648Z,-1.58
2023-02-08T18:40:50.071Z,-1.61
2023-02-08T18:43:17.881Z,-1.59
2023-02-08T18:45:45.982Z,-1.59
2023-02-08T18:48:12.736Z,-1.55
2023-02-08T18:50:39.121Z,-1.62
2023-02-08T18:53:05.504Z,-1.58
2023-02-08T18:55:32.284Z,-1.41
2023-02-08T18:57:58.608Z,-1.48
2023-02-08T19:00:25.098Z,-1.60
2023-02-08T19:02:51.851Z,-1.48
2023-02-08T19:05:18.333Z,-1.53
2023-02-08T19:07:46.575Z,-1.52
2023-02-08T19:10:13.004Z,-1.49
2023-02-08T19:12:39.693Z,-1.48
2023-02-08T19:15:06.768Z,-1.49
2023-02-08T19:17:33.485Z,-1.45
2023-02-08T19:19:59.888Z,-1.50
2023-02-08T19:22:26.453Z,-1.40
2023-02-08T19:24:59.433Z,-1.33
2023-02-08T19:27:27.110Z,-1.40
2023-02-08T19:29:58.625Z,-1.37
2023-02-08T19:32:25.063Z,-1.32
2023-02-08T19:34:51.548Z,-1.36
2023-02-08T19:37:19.036Z,-1.42
2023-02-08T19:39:45.827Z,-1.55
2023-02-08T19:42:12.385Z,-1.44
2023-02-08T19:44:38.822Z,-1.48
2023-02-08T19:47:06.014Z,-1.43
2023-02-08T19:49:32.472Z,-1.49
2023-02-08T19:51:59.011Z,-1.51
2023-02-08T19:54:25.612Z,-1.48
2023-02-08T19:56:54.705Z,-1.51
2023-02-08T19:59:26.691Z,-1.51
2023-02-08T20:01:55.352Z,-1.46
2023-02-08T20:04:22.216Z,-1.54
2023-02-08T20:06:51.299Z,-1.51
2023-02-08T20:09:17.726Z,-1.52
2023-02-08T20:11:56.316Z,-1.50
2023-02-08T20:14:24.090Z,-1.52
2023-02-08T20:16:50.565Z,-1.47
2023-02-08T20:19:17.122Z,-1.43
2023-02-08T20:21:45.306Z,-1.39
2023-02-08T20:24:12.107Z,-1.30
2023-02-08T20:26:49.908Z,-1.30
2023-02-08T20:29:17.280Z,-1.24
2023-02-08T20:31:47.464Z,-1.27
2023-02-08T20:34:15.072Z,-1.30
2023-02-08T20:37:04.464Z,-1.32
2023-02-08T20:39:32.635Z,-1.41
2023-02-08T20:41:59.310Z,-1.32
2023-02-08T20:44:25.752Z,-1.27
2023-02-08T20:46:54.572Z,-1.33
2023-02-08T20:49:25.294Z,-1.31
2023-02-08T20:51:53.642Z,-1.34
2023-02-08T20:54:20.138Z,-1.31
2023-02-08T20:56:46.570Z,-1.25
2023-02-08T20:59:15.676Z,-1.31
2023-02-08T21:01:44.044Z,-1.34
2023-02-08T21:04:11.597Z,-1.43
2023-02-08T21:06:38.491Z,-1.41
2023-02-08T21:09:11.768Z,-1.35
2023-02-08T21:11:38.327Z,-1.38
2023-02-08T21:14:07.715Z,-1.34
2023-02-08T21:16:34.214Z,-1.34
2023-02-08T21:19:00.758Z,-1.31
2023-02-08T21:21:29.430Z,-1.31
2023-02-08T21:23:58.041Z,-1.19
2023-02-08T21:26:25.389Z,-1.25
2023-02-08T21:28:53.290Z,-1.21
2023-02-08T21:31:22.045Z,-1.16
2023-02-08T21:33:49.280Z,-1.10
2023-02-08T21:36:19.010Z,-1.18
2023-02-08T21:38:46.265Z,-1.11
2023-02-08T21:41:24.803Z,-0.93
2023-02-08T21:43:53.692Z,-0.87
2023-02-08T21:46:20.568Z,-0.80
2023-02-08T21:49:06.166Z,-0.85
2023-02-08T21:51:51.627Z,-0.91
2023-02-08T21:54:40.423Z,-0.93
2023-02-08T21:57:15.927Z,-0.74
2023-02-08T21:59:42.978Z,-0.76
2023-02-08T22:02:23.010Z,-0.69
2023-02-08T22:05:08.945Z,-0.73
2023-02-08T22:07:44.446Z,-0.72
2023-02-08T22:10:14.546Z,-0.60
2023-02-08T22:12:42.098Z,-0.65
2023-02-08T22:15:10.776Z,-0.58
2023-02-08T22:17:37.172Z,-0.63
2023-02-08T22:20:04.418Z,-0.64
2023-02-08T22:22:31.543Z,-0.57
2023-02-08T22:24:58.158Z,-0.63
2023-02-08T22:27:24.618Z,-0.72
2023-02-08T22:29:52.056Z,-0.76
2023-02-08T22:32:18.504Z,-0.75
2023-02-08T22:34:48.482Z,-0.74
2023-02-08T22:37:16.160Z,-0.80
2023-02-08T22:39:42.914Z,-0.85
2023-02-08T22:42:13.245Z,-0.87
2023-02-08T22:44:41.130Z,-0.93
2023-02-08T22:47:08.545Z,-1.01
2023-02-08T22:49:45.297Z,-0.97
2023-02-08T22:52:12.154Z,-0.91
2023-02-08T22:54:38.750Z,-1.00
2023-02-08T22:57:06.275Z,-0.88
2023-02-08T22:59:34.374Z,-0.89
2023-02-08T23:02:01.712Z,-0.94
2023-02-08T23:04:28.572Z,-0.94
2023-02-08T23:06:55.863Z,-0.91
2023-02-08T23:09:23.472Z,-0.90
2023-02-08T23:11:49.946Z,-0.96
2023-02-08T23:14:16.593Z,-0.97
2023-02-08T23:16:43.085Z,-1.01
2023-02-08T23:19:18.249Z,-1.02
2023-02-08T23:21:44.994Z,-1.05
2023-02-08T23:24:12.225Z,-1.14
2023-02-08T23:26:39.097Z,-1.07
2023-02-08T23:29:05.599Z,-0.99
2023-02-08T23:31:32.196Z,-1.09
2023-02-08T23:34:00.425Z,-1.04
2023-02-08T23:36:27.097Z,-1.04
2023-02-08T23:38:56.684Z,-1.14
2023-02-08T23:41:24.142Z,-1.16
2023-02-08T23:43:52.108Z,-1.22
2023-02-08T23:46:21.908Z,-1.20
2023-02-08T23:48:49.061Z,-1.21
2023-02-08T23:51:17.448Z,-1.29
2023-02-08T23:53:44.562Z,-1.33
2023-02-08T23:56:18.106Z,-1.25
2023-02-08T23:58:46.609Z,-1.21
